sensor_id;sensor_type;location;lat;lon;timestamp;temperature;humidity
1297;DHT22;641;48.492;9.184;2023-05-10T00:01:55;16.40;99.90
1297;DHT22;641;48.492;9.184;2023-05-10T00:04:20;16.50;99.90
1297;DHT22;641;48.492;9.184;2023-05-10T00:06:46;16.30;99.90
1297;DHT22;641;48.492;9.184;2023-05-10T00:09:12;16.20;99.90
1297;DHT22;641;48.492;9.184;2023-05-10T00:11:37;16.30;99.90
1297;DHT22;641;48.492;9.184;2023-05-10T00:14:03;16.40;99.90
1297;DHT22;641;48.492;9.184;2023-05-10T00:16:29;16.40;99.90
1297;DHT22;641;48.492;9.184;2023-05-10T00:18:54;16.50;99.90
1297;DHT22;641;48.492;9.184;2023-05-10T00:21:20;16.70;99.90
1297;DHT22;641;48.492;9.184;2023-05-10T00:23:45;16.40;99.90
1297;DHT22;641;48.492;9.184;2023-05-10T00:26:11;16.50;99.90
1297;DHT22;641;48.492;9.184;2023-05-10T00:28:37;16.00;99.90
1297;DHT22;641;48.492;9.184;2023-05-10T00:31:02;16.20;99.90
1297;DHT22;641;48.492;9.184;2023-05-10T00:33:28;16.00;99.90
1297;DHT22;641;48.492;9.184;2023-05-10T00:35:53;16.20;99.90
1297;DHT22;641;48.492;9.184;2023-05-10T00:38:19;16.50;99.90
1297;DHT22;641;48.492;9.184;2023-05-10T00:40:44;16.30;99.90
1297;DHT22;641;48.492;9.184;2023-05-10T00:43:10;16.20;99.90
1297;DHT22;641;48.492;9.184;2023-05-10T00:45:36;16.00;99.90
1297;DHT22;641;48.492;9.184;2023-05-10T00:48:02;15.90;99.90
1297;DHT22;641;48.492;9.184;2023-05-10T00:50:29;15.90;99.90
1297;DHT22;641;48.492;9.184;2023-05-10T00:52:56;16.00;99.90
1297;DHT22;641;48.492;9.184;2023-05-10T00:55:22;16.10;99.90
1297;DHT22;641;48.492;9.184;2023-05-10T00:57:48;15.80;99.90
1297;DHT22;641;48.492;9.184;2023-05-10T01:00:14;15.50;99.90
1297;DHT22;641;48.492;9.184;2023-05-10T01:02:46;15.60;99.90
1297;DHT22;641;48.492;9.184;2023-05-10T01:05:12;15.80;99.90
1297;DHT22;641;48.492;9.184;2023-05-10T01:07:39;16.10;99.90
1297;DHT22;641;48.492;9.184;2023-05-10T01:10:06;16.10;99.90
1297;DHT22;641;48.492;9.184;2023-05-10T01:12:32;16.20;99.90
1297;DHT22;641;48.492;9.184;2023-05-10T01:14:58;16.50;99.90
1297;DHT22;641;48.492;9.184;2023-05-10T01:17:24;16.10;99.90
1297;DHT22;641;48.492;9.184;2023-05-10T01:19:50;16.00;99.90
1297;DHT22;641;48.492;9.184;2023-05-10T01:31:22;16.00;99.90
1297;DHT22;641;48.492;9.184;2023-05-10T01:41:33;16.00;99.90
1297;DHT22;641;48.492;9.184;2023-05-10T01:46:37;16.20;99.90
1297;DHT22;641;48.492;9.184;2023-05-10T01:49:09;16.20;99.90
1297;DHT22;641;48.492;9.184;2023-05-10T01:51:48;16.20;99.90
1297;DHT22;641;48.492;9.184;2023-05-10T01:54:15;16.20;99.90
1297;DHT22;641;48.492;9.184;2023-05-10T01:56:43;16.50;99.90
1297;DHT22;641;48.492;9.184;2023-05-10T01:59:13;16.50;99.90
1297;DHT22;641;48.492;9.184;2023-05-10T02:01:41;16.50;99.90
1297;DHT22;641;48.492;9.184;2023-05-10T02:04:08;16.20;99.90
1297;DHT22;641;48.492;9.184;2023-05-10T02:06:36;16.10;99.90
1297;DHT22;641;48.492;9.184;2023-05-10T02:09:03;16.00;99.90
1297;DHT22;641;48.492;9.184;2023-05-10T02:11:29;16.10;99.90
1297;DHT22;641;48.492;9.184;2023-05-10T02:13:57;15.80;99.90
1297;DHT22;641;48.492;9.184;2023-05-10T02:16:24;15.90;99.90
1297;DHT22;641;48.492;9.184;2023-05-10T02:18:52;15.90;99.90
1297;DHT22;641;48.492;9.184;2023-05-10T02:21:19;16.00;99.90
1297;DHT22;641;48.492;9.184;2023-05-10T02:23:46;16.10;99.90
1297;DHT22;641;48.492;9.184;2023-05-10T02:26:14;15.60;99.90
1297;DHT22;641;48.492;9.184;2023-05-10T02:28:42;15.50;99.90
1297;DHT22;641;48.492;9.184;2023-05-10T02:31:09;15.60;99.90
1297;DHT22;641;48.492;9.184;2023-05-10T02:33:38;15.60;99.90
1297;DHT22;641;48.492;9.184;2023-05-10T02:36:06;15.60;99.90
1297;DHT22;641;48.492;9.184;2023-05-10T02:38:33;15.70;99.90
1297;DHT22;641;48.492;9.184;2023-05-10T02:40:59;15.90;99.90
1297;DHT22;641;48.492;9.184;2023-05-10T02:43:25;15.50;99.90
1297;DHT22;641;48.492;9.184;2023-05-10T02:45:51;15.60;99.90
1297;DHT22;641;48.492;9.184;2023-05-10T02:48:17;15.50;99.90
1297;DHT22;641;48.492;9.184;2023-05-10T02:50:46;15.80;99.90
1297;DHT22;641;48.492;9.184;2023-05-10T02:53:20;15.70;99.90
1297;DHT22;641;48.492;9.184;2023-05-10T02:55:51;15.70;99.90
1297;DHT22;641;48.492;9.184;2023-05-10T02:58:17;15.50;99.90
1297;DHT22;641;48.492;9.184;2023-05-10T03:00:44;15.40;99.90
1297;DHT22;641;48.492;9.184;2023-05-10T03:03:10;15.40;99.90
1297;DHT22;641;48.492;9.184;2023-05-10T03:05:36;15.30;99.90
1297;DHT22;641;48.492;9.184;2023-05-10T03:08:02;15.30;99.90
1297;DHT22;641;48.492;9.184;2023-05-10T03:10:31;15.30;99.90
1297;DHT22;641;48.492;9.184;2023-05-10T03:18:05;15.40;99.90
1297;DHT22;641;48.492;9.184;2023-05-10T03:20:55;15.80;99.90
1297;DHT22;641;48.492;9.184;2023-05-10T03:23:28;15.80;99.90
1297;DHT22;641;48.492;9.184;2023-05-10T03:25:55;15.60;99.90
1297;DHT22;641;48.492;9.184;2023-05-10T03:28:22;15.70;99.90
1297;DHT22;641;48.492;9.184;2023-05-10T03:30:50;15.80;99.90
1297;DHT22;641;48.492;9.184;2023-05-10T03:33:17;15.60;99.90
1297;DHT22;641;48.492;9.184;2023-05-10T03:35:43;15.50;99.90
1297;DHT22;641;48.492;9.184;2023-05-10T03:38:11;15.50;99.90
1297;DHT22;641;48.492;9.184;2023-05-10T03:40:37;15.50;99.90
1297;DHT22;641;48.492;9.184;2023-05-10T03:43:02;15.60;99.90
1297;DHT22;641;48.492;9.184;2023-05-10T03:45:28;15.60;99.90
1297;DHT22;641;48.492;9.184;2023-05-10T03:47:54;15.50;99.90
1297;DHT22;641;48.492;9.184;2023-05-10T03:50:20;15.40;99.90
1297;DHT22;641;48.492;9.184;2023-05-10T03:52:45;15.40;99.90
1297;DHT22;641;48.492;9.184;2023-05-10T03:55:11;15.40;99.90
1297;DHT22;641;48.492;9.184;2023-05-10T03:57:37;15.30;99.90
1297;DHT22;641;48.492;9.184;2023-05-10T04:00:03;15.50;99.90
1297;DHT22;641;48.492;9.184;2023-05-10T04:02:29;15.20;99.90
1297;DHT22;641;48.492;9.184;2023-05-10T04:04:55;15.00;99.90
1297;DHT22;641;48.492;9.184;2023-05-10T04:07:21;15.10;99.90
1297;DHT22;641;48.492;9.184;2023-05-10T04:09:47;15.50;99.90
1297;DHT22;641;48.492;9.184;2023-05-10T04:12:12;15.50;99.90
1297;DHT22;641;48.492;9.184;2023-05-10T04:14:38;15.80;99.90
1297;DHT22;641;48.492;9.184;2023-05-10T04:17:04;15.50;99.90
1297;DHT22;641;48.492;9.184;2023-05-10T04:19:33;15.90;99.90
1297;DHT22;641;48.492;9.184;2023-05-10T04:21:58;15.70;99.90
1297;DHT22;641;48.492;9.184;2023-05-10T04:24:24;15.90;99.90
1297;DHT22;641;48.492;9.184;2023-05-10T04:26:50;16.00;99.90
1297;DHT22;641;48.492;9.184;2023-05-10T04:29:16;16.20;99.90
1297;DHT22;641;48.492;9.184;2023-05-10T04:31:41;15.80;99.90
1297;DHT22;641;48.492;9.184;2023-05-10T04:34:07;15.60;99.90
1297;DHT22;641;48.492;9.184;2023-05-10T04:36:33;15.60;99.90
1297;DHT22;641;48.492;9.184;2023-05-10T04:39:01;16.00;99.90
1297;DHT22;641;48.492;9.184;2023-05-10T04:41:28;16.00;99.90
1297;DHT22;641;48.492;9.184;2023-05-10T04:43:54;15.80;99.90
1297;DHT22;641;48.492;9.184;2023-05-10T04:46:19;15.60;99.90
1297;DHT22;641;48.492;9.184;2023-05-10T04:48:45;15.30;99.90
1297;DHT22;641;48.492;9.184;2023-05-10T04:51:11;15.50;99.90
1297;DHT22;641;48.492;9.184;2023-05-10T04:53:36;15.90;99.90
1297;DHT22;641;48.492;9.184;2023-05-10T04:56:02;16.00;99.90
1297;DHT22;641;48.492;9.184;2023-05-10T04:58:28;15.90;99.90
1297;DHT22;641;48.492;9.184;2023-05-10T05:00:53;15.80;99.90
1297;DHT22;641;48.492;9.184;2023-05-10T05:03:19;15.80;99.90
1297;DHT22;641;48.492;9.184;2023-05-10T05:05:44;16.30;99.90
1297;DHT22;641;48.492;9.184;2023-05-10T05:08:10;16.00;99.90
1297;DHT22;641;48.492;9.184;2023-05-10T05:10:35;16.40;99.90
1297;DHT22;641;48.492;9.184;2023-05-10T05:13:01;15.90;99.90
1297;DHT22;641;48.492;9.184;2023-05-10T05:15:26;16.20;99.90
1297;DHT22;641;48.492;9.184;2023-05-10T05:17:52;16.20;99.90
1297;DHT22;641;48.492;9.184;2023-05-10T05:20:18;16.10;99.90
1297;DHT22;641;48.492;9.184;2023-05-10T05:22:44;15.90;99.90
1297;DHT22;641;48.492;9.184;2023-05-10T05:25:10;16.30;99.90
1297;DHT22;641;48.492;9.184;2023-05-10T05:27:37;16.10;99.90
1297;DHT22;641;48.492;9.184;2023-05-10T05:30:03;16.20;99.90
1297;DHT22;641;48.492;9.184;2023-05-10T05:32:29;16.00;99.90
1297;DHT22;641;48.492;9.184;2023-05-10T05:34:55;16.30;99.90
1297;DHT22;641;48.492;9.184;2023-05-10T05:37:21;16.40;99.90
1297;DHT22;641;48.492;9.184;2023-05-10T05:39:47;16.20;99.90
1297;DHT22;641;48.492;9.184;2023-05-10T05:42:14;16.10;99.90
1297;DHT22;641;48.492;9.184;2023-05-10T05:44:40;16.00;99.90
1297;DHT22;641;48.492;9.184;2023-05-10T05:47:05;15.90;99.90
1297;DHT22;641;48.492;9.184;2023-05-10T05:49:31;16.00;99.90
1297;DHT22;641;48.492;9.184;2023-05-10T05:52:01;15.70;99.90
1297;DHT22;641;48.492;9.184;2023-05-10T05:54:27;15.90;99.90
1297;DHT22;641;48.492;9.184;2023-05-10T05:57:00;16.10;99.90
1297;DHT22;641;48.492;9.184;2023-05-10T05:59:26;16.20;99.90
1297;DHT22;641;48.492;9.184;2023-05-10T06:22:50;15.80;99.90
1297;DHT22;641;48.492;9.184;2023-05-10T06:25:17;15.70;99.90
1297;DHT22;641;48.492;9.184;2023-05-10T06:27:51;15.80;99.90
1297;DHT22;641;48.492;9.184;2023-05-10T06:30:20;16.10;99.90
1297;DHT22;641;48.492;9.184;2023-05-10T06:32:48;16.30;99.90
1297;DHT22;641;48.492;9.184;2023-05-10T06:49:23;16.50;99.90
1297;DHT22;641;48.492;9.184;2023-05-10T06:55:30;16.70;99.90
1297;DHT22;641;48.492;9.184;2023-05-10T07:01:09;17.00;99.90
1297;DHT22;641;48.492;9.184;2023-05-10T07:03:42;17.00;99.90
1297;DHT22;641;48.492;9.184;2023-05-10T07:06:08;16.90;99.90
1297;DHT22;641;48.492;9.184;2023-05-10T07:14:48;17.30;99.90
1297;DHT22;641;48.492;9.184;2023-05-10T07:18:11;17.10;99.90
1297;DHT22;641;48.492;9.184;2023-05-10T07:20:52;17.00;99.90
1297;DHT22;641;48.492;9.184;2023-05-10T07:23:26;16.90;99.90
1297;DHT22;641;48.492;9.184;2023-05-10T07:25:53;17.20;99.90
1297;DHT22;641;48.492;9.184;2023-05-10T07:28:24;17.10;99.90
1297;DHT22;641;48.492;9.184;2023-05-10T07:30:56;17.00;99.90
1297;DHT22;641;48.492;9.184;2023-05-10T07:37:02;17.00;99.90
1297;DHT22;641;48.492;9.184;2023-05-10T07:39:29;16.80;99.90
1297;DHT22;641;48.492;9.184;2023-05-10T07:44:22;16.90;99.90
1297;DHT22;641;48.492;9.184;2023-05-10T07:47:10;17.20;99.90
1297;DHT22;641;48.492;9.184;2023-05-10T07:49:57;16.90;99.90
1297;DHT22;641;48.492;9.184;2023-05-10T07:52:25;17.00;99.90
1297;DHT22;641;48.492;9.184;2023-05-10T07:54:55;17.30;99.90
1297;DHT22;641;48.492;9.184;2023-05-10T07:57:27;17.30;99.90
1297;DHT22;641;48.492;9.184;2023-05-10T07:59:55;17.20;99.90
1297;DHT22;641;48.492;9.184;2023-05-10T08:02:22;17.20;99.90
1297;DHT22;641;48.492;9.184;2023-05-10T08:04:58;17.60;99.90
1297;DHT22;641;48.492;9.184;2023-05-10T08:07:26;17.60;99.90
1297;DHT22;641;48.492;9.184;2023-05-10T08:09:51;17.70;99.90
1297;DHT22;641;48.492;9.184;2023-05-10T08:12:18;17.90;99.90
1297;DHT22;641;48.492;9.184;2023-05-10T11:40:37;17.40;99.90
1297;DHT22;641;48.492;9.184;2023-05-10T11:43:09;17.80;99.90
1297;DHT22;641;48.492;9.184;2023-05-10T11:45:59;17.20;99.90
1297;DHT22;641;48.492;9.184;2023-05-10T12:05:39;16.70;99.90
1297;DHT22;641;48.492;9.184;2023-05-10T12:11:38;17.50;99.90
1297;DHT22;641;48.492;9.184;2023-05-10T12:18:26;17.60;99.90
1297;DHT22;641;48.492;9.184;2023-05-10T12:29:20;17.80;99.90
1297;DHT22;641;48.492;9.184;2023-05-10T12:31:56;18.00;99.90
1297;DHT22;641;48.492;9.184;2023-05-10T12:37:53;18.00;99.90
1297;DHT22;641;48.492;9.184;2023-05-10T12:43:41;18.10;99.90
1297;DHT22;641;48.492;9.184;2023-05-10T12:46:19;18.40;99.90
1297;DHT22;641;48.492;9.184;2023-05-10T12:48:46;18.80;99.90
1297;DHT22;641;48.492;9.184;2023-05-10T12:53:44;18.90;99.90
1297;DHT22;641;48.492;9.184;2023-05-10T12:56:15;18.30;99.90
1297;DHT22;641;48.492;9.184;2023-05-10T12:58:43;18.50;99.90
1297;DHT22;641;48.492;9.184;2023-05-10T13:01:13;18.80;99.90
1297;DHT22;641;48.492;9.184;2023-05-10T13:03:39;18.70;99.90
1297;DHT22;641;48.492;9.184;2023-05-10T13:06:05;18.90;99.90
1297;DHT22;641;48.492;9.184;2023-05-10T13:08:31;18.90;99.90
1297;DHT22;641;48.492;9.184;2023-05-10T13:11:03;18.80;99.90
1297;DHT22;641;48.492;9.184;2023-05-10T13:13:29;18.70;99.90
1297;DHT22;641;48.492;9.184;2023-05-10T13:15:55;18.60;99.90
1297;DHT22;641;48.492;9.184;2023-05-10T13:18:21;19.00;99.90
1297;DHT22;641;48.492;9.184;2023-05-10T13:20:46;18.90;99.90
1297;DHT22;641;48.492;9.184;2023-05-10T13:23:15;18.90;99.90
1297;DHT22;641;48.492;9.184;2023-05-10T13:25:40;19.00;99.90
1297;DHT22;641;48.492;9.184;2023-05-10T13:28:06;19.10;99.90
1297;DHT22;641;48.492;9.184;2023-05-10T13:32:59;18.90;99.90
1297;DHT22;641;48.492;9.184;2023-05-10T13:35:25;19.40;99.90
1297;DHT22;641;48.492;9.184;2023-05-10T13:37:50;19.30;99.90
1297;DHT22;641;48.492;9.184;2023-05-10T13:40:18;19.30;99.90
1297;DHT22;641;48.492;9.184;2023-05-10T13:42:44;19.50;99.90
1297;DHT22;641;48.492;9.184;2023-05-10T13:45:10;19.80;99.90
1297;DHT22;641;48.492;9.184;2023-05-10T13:47:37;19.30;99.90
1297;DHT22;641;48.492;9.184;2023-05-10T13:50:03;19.50;99.90
1297;DHT22;641;48.492;9.184;2023-05-10T13:52:31;19.50;99.90
1297;DHT22;641;48.492;9.184;2023-05-10T13:54:57;19.70;99.90
1297;DHT22;641;48.492;9.184;2023-05-10T13:57:24;19.80;99.90
1297;DHT22;641;48.492;9.184;2023-05-10T13:59:58;19.60;99.90
1297;DHT22;641;48.492;9.184;2023-05-10T14:02:32;19.20;99.90
1297;DHT22;641;48.492;9.184;2023-05-10T14:04:58;19.10;99.90
1297;DHT22;641;48.492;9.184;2023-05-10T14:10:33;19.40;99.90
1297;DHT22;641;48.492;9.184;2023-05-10T14:16:59;19.70;99.90
1297;DHT22;641;48.492;9.184;2023-05-10T14:19:28;19.40;99.90
1297;DHT22;641;48.492;9.184;2023-05-10T14:21:56;19.50;99.90
1297;DHT22;641;48.492;9.184;2023-05-10T14:24:25;19.60;99.90
1297;DHT22;641;48.492;9.184;2023-05-10T14:29:23;19.60;99.90
1297;DHT22;641;48.492;9.184;2023-05-10T14:31:55;19.40;99.90
1297;DHT22;641;48.492;9.184;2023-05-10T14:34:21;19.20;99.90
1297;DHT22;641;48.492;9.184;2023-05-10T14:36:48;19.40;99.90
1297;DHT22;641;48.492;9.184;2023-05-10T14:39:15;19.30;99.90
1297;DHT22;641;48.492;9.184;2023-05-10T14:41:42;19.40;99.90
1297;DHT22;641;48.492;9.184;2023-05-10T14:44:12;19.00;99.90
1297;DHT22;641;48.492;9.184;2023-05-10T14:46:40;19.00;99.90
1297;DHT22;641;48.492;9.184;2023-05-10T14:49:10;19.00;99.90
1297;DHT22;641;48.492;9.184;2023-05-10T14:51:36;18.90;99.90
1297;DHT22;641;48.492;9.184;2023-05-10T14:56:28;18.50;99.90
1297;DHT22;641;48.492;9.184;2023-05-10T14:58:57;18.60;99.90
1297;DHT22;641;48.492;9.184;2023-05-10T15:01:23;19.00;99.90
1297;DHT22;641;48.492;9.184;2023-05-10T15:03:49;18.70;99.90
1297;DHT22;641;48.492;9.184;2023-05-10T15:06:17;18.90;99.90
1297;DHT22;641;48.492;9.184;2023-05-10T15:08:49;19.00;99.90
1297;DHT22;641;48.492;9.184;2023-05-10T15:11:16;19.00;99.90
1297;DHT22;641;48.492;9.184;2023-05-10T15:13:42;18.90;99.90
1297;DHT22;641;48.492;9.184;2023-05-10T15:16:09;19.00;99.90
1297;DHT22;641;48.492;9.184;2023-05-10T15:18:37;19.30;99.90
1297;DHT22;641;48.492;9.184;2023-05-10T15:21:05;19.10;99.90
1297;DHT22;641;48.492;9.184;2023-05-10T15:25:57;19.20;99.90
1297;DHT22;641;48.492;9.184;2023-05-10T15:28:23;19.10;99.90
1297;DHT22;641;48.492;9.184;2023-05-10T15:30:50;19.20;99.90
1297;DHT22;641;48.492;9.184;2023-05-10T15:33:16;19.00;99.90
1297;DHT22;641;48.492;9.184;2023-05-10T15:35:45;19.30;99.90
1297;DHT22;641;48.492;9.184;2023-05-10T15:38:11;19.00;99.90
1297;DHT22;641;48.492;9.184;2023-05-10T15:40:40;19.20;99.90
1297;DHT22;641;48.492;9.184;2023-05-10T15:43:07;19.60;99.90
1297;DHT22;641;48.492;9.184;2023-05-10T15:45:37;19.40;99.90
1297;DHT22;641;48.492;9.184;2023-05-10T15:48:03;19.40;99.90
1297;DHT22;641;48.492;9.184;2023-05-10T15:50:29;18.90;99.90
1297;DHT22;641;48.492;9.184;2023-05-10T15:55:22;18.60;99.90
1297;DHT22;641;48.492;9.184;2023-05-10T15:57:48;18.60;99.90
1297;DHT22;641;48.492;9.184;2023-05-10T16:00:14;19.10;99.90
1297;DHT22;641;48.492;9.184;2023-05-10T16:02:40;18.40;99.90
1297;DHT22;641;48.492;9.184;2023-05-10T16:05:06;18.50;99.90
1297;DHT22;641;48.492;9.184;2023-05-10T16:07:33;18.10;99.90
1297;DHT22;641;48.492;9.184;2023-05-10T16:09:59;17.80;99.90
1297;DHT22;641;48.492;9.184;2023-05-10T16:12:29;17.70;99.90
1297;DHT22;641;48.492;9.184;2023-05-10T16:14:55;18.40;99.90
1297;DHT22;641;48.492;9.184;2023-05-10T16:17:21;18.50;99.90
1297;DHT22;641;48.492;9.184;2023-05-10T16:19:47;18.70;99.90
1297;DHT22;641;48.492;9.184;2023-05-10T16:22:12;18.60;99.90
1297;DHT22;641;48.492;9.184;2023-05-10T16:24:38;18.10;99.90
1297;DHT22;641;48.492;9.184;2023-05-10T16:27:04;18.00;99.90
1297;DHT22;641;48.492;9.184;2023-05-10T16:29:29;18.00;99.90
1297;DHT22;641;48.492;9.184;2023-05-10T16:31:56;18.20;99.90
1297;DHT22;641;48.492;9.184;2023-05-10T16:34:21;18.40;99.90
1297;DHT22;641;48.492;9.184;2023-05-10T16:36:48;17.80;99.90
1297;DHT22;641;48.492;9.184;2023-05-10T16:39:14;17.60;99.90
1297;DHT22;641;48.492;9.184;2023-05-10T16:41:40;17.60;99.90
1297;DHT22;641;48.492;9.184;2023-05-10T16:44:06;17.80;99.90
1297;DHT22;641;48.492;9.184;2023-05-10T16:46:32;17.80;99.90
1297;DHT22;641;48.492;9.184;2023-05-10T16:48:58;17.90;99.90
1297;DHT22;641;48.492;9.184;2023-05-10T16:51:25;17.90;99.90
1297;DHT22;641;48.492;9.184;2023-05-10T16:53:50;17.80;99.90
1297;DHT22;641;48.492;9.184;2023-05-10T16:56:16;17.90;99.90
1297;DHT22;641;48.492;9.184;2023-05-10T16:58:46;17.70;99.90
1297;DHT22;641;48.492;9.184;2023-05-10T17:01:14;17.70;99.90
1297;DHT22;641;48.492;9.184;2023-05-10T17:03:40;17.90;99.90
1297;DHT22;641;48.492;9.184;2023-05-10T17:06:05;18.00;99.90
1297;DHT22;641;48.492;9.184;2023-05-10T17:08:32;17.40;99.90
1297;DHT22;641;48.492;9.184;2023-05-10T17:11:00;17.80;99.90
1297;DHT22;641;48.492;9.184;2023-05-10T17:13:27;18.20;99.90
1297;DHT22;641;48.492;9.184;2023-05-10T17:15:53;18.30;99.90
1297;DHT22;641;48.492;9.184;2023-05-10T17:18:18;18.10;99.90
1297;DHT22;641;48.492;9.184;2023-05-10T17:20:44;18.50;99.90
1297;DHT22;641;48.492;9.184;2023-05-10T17:23:10;17.90;99.90
1297;DHT22;641;48.492;9.184;2023-05-10T17:25:36;17.90;99.90
1297;DHT22;641;48.492;9.184;2023-05-10T17:28:02;17.50;99.90
1297;DHT22;641;48.492;9.184;2023-05-10T17:30:28;17.80;99.90
1297;DHT22;641;48.492;9.184;2023-05-10T17:32:59;17.70;99.90
1297;DHT22;641;48.492;9.184;2023-05-10T17:35:25;17.80;99.90
1297;DHT22;641;48.492;9.184;2023-05-10T17:37:51;17.60;99.90
1297;DHT22;641;48.492;9.184;2023-05-10T17:40:16;17.40;99.90
1297;DHT22;641;48.492;9.184;2023-05-10T17:42:42;17.40;99.90
1297;DHT22;641;48.492;9.184;2023-05-10T17:45:08;17.60;99.90
1297;DHT22;641;48.492;9.184;2023-05-10T17:47:34;17.20;99.90
1297;DHT22;641;48.492;9.184;2023-05-10T17:50:00;17.20;99.90
1297;DHT22;641;48.492;9.184;2023-05-10T17:52:25;17.00;99.90
1297;DHT22;641;48.492;9.184;2023-05-10T17:54:51;17.00;99.90
1297;DHT22;641;48.492;9.184;2023-05-10T17:57:17;17.20;99.90
